sensor_id;sensor_type;location;lat;lon;timestamp;P1;durP1;ratioP1;P2;durP2;ratioP2
71671;SDS011;67659;45.554;11.812;2023-06-24T00:01:29;17.63;;;11.60;;
71671;SDS011;67659;45.554;11.812;2023-06-24T00:03:56;21.30;;;10.82;;
71671;SDS011;67659;45.554;11.812;2023-06-24T00:06:22;19.00;;;11.30;;
71671;SDS011;67659;45.554;11.812;2023-06-24T00:08:51;16.27;;;10.45;;
71671;SDS011;67659;45.554;11.812;2023-06-24T00:11:21;21.75;;;11.90;;
71671;SDS011;67659;45.554;11.812;2023-06-24T00:13:47;16.07;;;9.10;;
71671;SDS011;67659;45.554;11.812;2023-06-24T00:16:13;16.27;;;11.00;;
71671;SDS011;67659;45.554;11.812;2023-06-24T00:18:39;19.30;;;12.90;;
71671;SDS011;67659;45.554;11.812;2023-06-24T00:21:07;20.13;;;11.52;;
71671;SDS011;67659;45.554;11.812;2023-06-24T00:23:33;21.90;;;13.93;;
71671;SDS011;67659;45.554;11.812;2023-06-24T00:25:59;20.42;;;13.02;;
71671;SDS011;67659;45.554;11.812;2023-06-24T00:28:26;19.83;;;13.50;;
71671;SDS011;67659;45.554;11.812;2023-06-24T00:30:52;20.23;;;13.73;;
71671;SDS011;67659;45.554;11.812;2023-06-24T00:33:18;18.13;;;13.10;;
71671;SDS011;67659;45.554;11.812;2023-06-24T00:35:45;19.33;;;12.18;;
71671;SDS011;67659;45.554;11.812;2023-06-24T00:38:11;16.42;;;10.23;;
71671;SDS011;67659;45.554;11.812;2023-06-24T00:40:37;14.07;;;9.20;;
71671;SDS011;67659;45.554;11.812;2023-06-24T00:43:04;21.27;;;15.38;;
71671;SDS011;67659;45.554;11.812;2023-06-24T00:45:31;21.95;;;14.45;;
71671;SDS011;67659;45.554;11.812;2023-06-24T00:48:00;25.27;;;15.32;;
71671;SDS011;67659;45.554;11.812;2023-06-24T00:50:28;23.10;;;15.23;;
71671;SDS011;67659;45.554;11.812;2023-06-24T00:52:54;20.87;;;12.80;;
71671;SDS011;67659;45.554;11.812;2023-06-24T00:55:20;20.25;;;13.93;;
71671;SDS011;67659;45.554;11.812;2023-06-24T00:57:47;24.70;;;13.98;;
71671;SDS011;67659;45.554;11.812;2023-06-24T01:00:17;21.70;;;13.48;;
71671;SDS011;67659;45.554;11.812;2023-06-24T01:02:46;21.13;;;13.70;;
71671;SDS011;67659;45.554;11.812;2023-06-24T01:05:13;23.07;;;15.30;;
71671;SDS011;67659;45.554;11.812;2023-06-24T01:07:41;21.42;;;13.20;;
71671;SDS011;67659;45.554;11.812;2023-06-24T01:10:09;26.13;;;15.07;;
71671;SDS011;67659;45.554;11.812;2023-06-24T01:12:38;20.20;;;14.57;;
71671;SDS011;67659;45.554;11.812;2023-06-24T01:15:06;24.52;;;14.30;;
71671;SDS011;67659;45.554;11.812;2023-06-24T01:20:05;22.55;;;13.68;;
71671;SDS011;67659;45.554;11.812;2023-06-24T01:36:20;24.23;;;15.95;;
71671;SDS011;67659;45.554;11.812;2023-06-24T01:38:54;24.88;;;14.80;;
71671;SDS011;67659;45.554;11.812;2023-06-24T01:41:24;22.90;;;14.15;;
71671;SDS011;67659;45.554;11.812;2023-06-24T01:43:55;19.83;;;12.43;;
71671;SDS011;67659;45.554;11.812;2023-06-24T01:46:22;25.27;;;14.52;;
71671;SDS011;67659;45.554;11.812;2023-06-24T01:48:50;20.92;;;12.70;;
71671;SDS011;67659;45.554;11.812;2023-06-24T01:51:20;22.45;;;13.52;;
71671;SDS011;67659;45.554;11.812;2023-06-24T01:53:49;24.23;;;14.98;;
71671;SDS011;67659;45.554;11.812;2023-06-24T01:56:19;22.93;;;15.00;;
71671;SDS011;67659;45.554;11.812;2023-06-24T01:58:48;18.70;;;12.25;;
71671;SDS011;67659;45.554;11.812;2023-06-24T02:01:17;21.45;;;14.07;;
71671;SDS011;67659;45.554;11.812;2023-06-24T02:03:44;21.50;;;13.68;;
71671;SDS011;67659;45.554;11.812;2023-06-24T02:06:11;21.88;;;13.30;;
71671;SDS011;67659;45.554;11.812;2023-06-24T02:08:39;20.40;;;12.80;;
71671;SDS011;67659;45.554;11.812;2023-06-24T02:11:08;23.15;;;13.68;;
71671;SDS011;67659;45.554;11.812;2023-06-24T02:13:35;19.70;;;11.50;;
71671;SDS011;67659;45.554;11.812;2023-06-24T02:16:04;15.52;;;8.95;;
71671;SDS011;67659;45.554;11.812;2023-06-24T02:18:32;17.35;;;11.05;;
71671;SDS011;67659;45.554;11.812;2023-06-24T02:21:00;23.63;;;15.73;;
71671;SDS011;67659;45.554;11.812;2023-06-24T02:23:28;26.80;;;16.20;;
71671;SDS011;67659;45.554;11.812;2023-06-24T02:25:55;18.27;;;13.00;;
71671;SDS011;67659;45.554;11.812;2023-06-24T02:28:22;22.85;;;14.65;;
71671;SDS011;67659;45.554;11.812;2023-06-24T02:30:48;18.98;;;13.50;;
71671;SDS011;67659;45.554;11.812;2023-06-24T02:33:15;22.63;;;13.00;;
71671;SDS011;67659;45.554;11.812;2023-06-24T02:35:41;15.73;;;10.82;;
71671;SDS011;67659;45.554;11.812;2023-06-24T02:38:07;17.08;;;11.80;;
71671;SDS011;67659;45.554;11.812;2023-06-24T02:40:33;15.52;;;10.32;;
71671;SDS011;67659;45.554;11.812;2023-06-24T02:42:59;16.83;;;11.80;;
71671;SDS011;67659;45.554;11.812;2023-06-24T02:45:25;17.92;;;12.32;;
71671;SDS011;67659;45.554;11.812;2023-06-24T02:47:53;16.00;;;11.77;;
71671;SDS011;67659;45.554;11.812;2023-06-24T02:50:21;12.05;;;8.15;;
71671;SDS011;67659;45.554;11.812;2023-06-24T02:52:47;16.30;;;11.60;;
71671;SDS011;67659;45.554;11.812;2023-06-24T02:55:14;13.37;;;8.97;;
71671;SDS011;67659;45.554;11.812;2023-06-24T02:57:40;14.55;;;10.15;;
71671;SDS011;67659;45.554;11.812;2023-06-24T03:00:07;18.67;;;11.50;;
71671;SDS011;67659;45.554;11.812;2023-06-24T03:02:40;20.55;;;11.98;;
71671;SDS011;67659;45.554;11.812;2023-06-24T03:05:09;17.25;;;11.93;;
71671;SDS011;67659;45.554;11.812;2023-06-24T03:07:36;17.30;;;10.93;;
71671;SDS011;67659;45.554;11.812;2023-06-24T03:10:03;21.48;;;11.57;;
71671;SDS011;67659;45.554;11.812;2023-06-24T03:12:31;20.38;;;13.98;;
71671;SDS011;67659;45.554;11.812;2023-06-24T03:14:57;20.10;;;13.90;;
71671;SDS011;67659;45.554;11.812;2023-06-24T03:17:23;18.77;;;13.40;;
71671;SDS011;67659;45.554;11.812;2023-06-24T03:19:50;22.03;;;13.70;;
71671;SDS011;67659;45.554;11.812;2023-06-24T03:22:16;18.05;;;11.90;;
71671;SDS011;67659;45.554;11.812;2023-06-24T03:24:45;17.63;;;11.45;;
71671;SDS011;67659;45.554;11.812;2023-06-24T03:27:10;18.15;;;10.93;;
71671;SDS011;67659;45.554;11.812;2023-06-24T03:29:38;18.70;;;11.33;;
71671;SDS011;67659;45.554;11.812;2023-06-24T03:32:03;20.10;;;13.18;;
71671;SDS011;67659;45.554;11.812;2023-06-24T03:34:29;24.17;;;15.25;;
71671;SDS011;67659;45.554;11.812;2023-06-24T03:36:55;23.48;;;15.68;;
71671;SDS011;67659;45.554;11.812;2023-06-24T03:39:21;21.17;;;14.03;;
71671;SDS011;67659;45.554;11.812;2023-06-24T03:41:47;22.52;;;15.43;;
71671;SDS011;67659;45.554;11.812;2023-06-24T03:44:13;26.45;;;16.25;;
71671;SDS011;67659;45.554;11.812;2023-06-24T03:46:40;23.85;;;14.20;;
71671;SDS011;67659;45.554;11.812;2023-06-24T03:49:05;22.70;;;14.63;;
71671;SDS011;67659;45.554;11.812;2023-06-24T03:51:32;26.52;;;16.33;;
71671;SDS011;67659;45.554;11.812;2023-06-24T03:53:58;22.30;;;14.35;;
71671;SDS011;67659;45.554;11.812;2023-06-24T03:56:24;23.95;;;15.13;;
71671;SDS011;67659;45.554;11.812;2023-06-24T03:58:50;23.27;;;14.77;;
71671;SDS011;67659;45.554;11.812;2023-06-24T04:01:15;19.10;;;11.10;;
71671;SDS011;67659;45.554;11.812;2023-06-24T04:03:44;14.60;;;10.90;;
71671;SDS011;67659;45.554;11.812;2023-06-24T04:06:10;18.23;;;12.60;;
71671;SDS011;67659;45.554;11.812;2023-06-24T04:08:36;18.60;;;11.87;;
71671;SDS011;67659;45.554;11.812;2023-06-24T04:11:05;24.88;;;14.70;;
71671;SDS011;67659;45.554;11.812;2023-06-24T04:13:32;23.05;;;14.45;;
71671;SDS011;67659;45.554;11.812;2023-06-24T04:15:58;23.67;;;14.25;;
71671;SDS011;67659;45.554;11.812;2023-06-24T04:18:24;22.00;;;13.93;;
71671;SDS011;67659;45.554;11.812;2023-06-24T04:20:50;25.27;;;14.55;;
71671;SDS011;67659;45.554;11.812;2023-06-24T04:23:16;28.40;;;14.70;;
71671;SDS011;67659;45.554;11.812;2023-06-24T04:25:41;29.13;;;15.23;;
71671;SDS011;67659;45.554;11.812;2023-06-24T04:28:08;25.10;;;14.63;;
71671;SDS011;67659;45.554;11.812;2023-06-24T04:30:34;24.90;;;14.85;;
71671;SDS011;67659;45.554;11.812;2023-06-24T04:33:07;28.63;;;15.40;;
71671;SDS011;67659;45.554;11.812;2023-06-24T04:35:33;27.77;;;15.10;;
71671;SDS011;67659;45.554;11.812;2023-06-24T04:38:01;22.33;;;15.00;;
71671;SDS011;67659;45.554;11.812;2023-06-24T04:40:27;19.93;;;13.97;;
71671;SDS011;67659;45.554;11.812;2023-06-24T04:42:53;21.95;;;14.88;;
71671;SDS011;67659;45.554;11.812;2023-06-24T04:45:19;25.40;;;14.65;;
71671;SDS011;67659;45.554;11.812;2023-06-24T04:47:46;21.37;;;14.23;;
71671;SDS011;67659;45.554;11.812;2023-06-24T04:50:12;23.55;;;14.18;;
71671;SDS011;67659;45.554;11.812;2023-06-24T04:52:38;23.38;;;14.30;;
71671;SDS011;67659;45.554;11.812;2023-06-24T04:55:07;23.48;;;14.70;;
71671;SDS011;67659;45.554;11.812;2023-06-24T04:57:33;25.55;;;13.90;;
71671;SDS011;67659;45.554;11.812;2023-06-24T04:59:59;23.00;;;14.40;;
71671;SDS011;67659;45.554;11.812;2023-06-24T05:02:28;25.00;;;14.30;;
71671;SDS011;67659;45.554;11.812;2023-06-24T05:04:54;24.77;;;13.63;;
71671;SDS011;67659;45.554;11.812;2023-06-24T05:07:20;22.95;;;14.05;;
71671;SDS011;67659;45.554;11.812;2023-06-24T05:09:49;21.20;;;13.47;;
71671;SDS011;67659;45.554;11.812;2023-06-24T05:12:16;22.33;;;13.82;;
71671;SDS011;67659;45.554;11.812;2023-06-24T05:14:42;22.65;;;14.65;;
71671;SDS011;67659;45.554;11.812;2023-06-24T05:17:08;24.53;;;14.77;;
71671;SDS011;67659;45.554;11.812;2023-06-24T05:19:33;26.17;;;14.38;;
71671;SDS011;67659;45.554;11.812;2023-06-24T05:21:59;25.58;;;14.80;;
71671;SDS011;67659;45.554;11.812;2023-06-24T05:24:27;22.03;;;14.37;;
71671;SDS011;67659;45.554;11.812;2023-06-24T05:26:53;23.70;;;15.05;;
71671;SDS011;67659;45.554;11.812;2023-06-24T05:29:19;23.02;;;14.48;;
71671;SDS011;67659;45.554;11.812;2023-06-24T05:31:45;24.65;;;14.75;;
71671;SDS011;67659;45.554;11.812;2023-06-24T05:34:11;19.80;;;14.13;;
71671;SDS011;67659;45.554;11.812;2023-06-24T05:36:37;23.73;;;15.85;;
71671;SDS011;67659;45.554;11.812;2023-06-24T05:39:03;23.50;;;14.38;;
71671;SDS011;67659;45.554;11.812;2023-06-24T05:41:30;23.03;;;14.60;;
71671;SDS011;67659;45.554;11.812;2023-06-24T05:44:08;22.52;;;15.23;;
71671;SDS011;67659;45.554;11.812;2023-06-24T05:46:37;23.60;;;15.35;;
71671;SDS011;67659;45.554;11.812;2023-06-24T05:49:03;23.27;;;14.35;;
71671;SDS011;67659;45.554;11.812;2023-06-24T05:51:29;20.77;;;14.23;;
71671;SDS011;67659;45.554;11.812;2023-06-24T05:53:55;20.13;;;13.32;;
71671;SDS011;67659;45.554;11.812;2023-06-24T05:56:23;19.08;;;13.68;;
71671;SDS011;67659;45.554;11.812;2023-06-24T05:58:50;20.80;;;12.63;;
71671;SDS011;67659;45.554;11.812;2023-06-24T06:01:16;19.70;;;12.95;;
71671;SDS011;67659;45.554;11.812;2023-06-24T06:03:41;19.95;;;13.32;;
71671;SDS011;67659;45.554;11.812;2023-06-24T06:06:07;20.20;;;13.93;;
71671;SDS011;67659;45.554;11.812;2023-06-24T06:08:33;21.38;;;13.05;;
71671;SDS011;67659;45.554;11.812;2023-06-24T06:10:59;21.42;;;13.10;;
71671;SDS011;67659;45.554;11.812;2023-06-24T06:13:27;20.52;;;13.02;;
71671;SDS011;67659;45.554;11.812;2023-06-24T06:15:54;19.40;;;12.60;;
71671;SDS011;67659;45.554;11.812;2023-06-24T06:18:20;20.77;;;12.77;;
71671;SDS011;67659;45.554;11.812;2023-06-24T06:20:46;22.08;;;13.93;;
71671;SDS011;67659;45.554;11.812;2023-06-24T06:23:12;17.40;;;12.90;;
71671;SDS011;67659;45.554;11.812;2023-06-24T06:25:37;21.67;;;13.55;;
71671;SDS011;67659;45.554;11.812;2023-06-24T06:28:04;20.88;;;13.18;;
71671;SDS011;67659;45.554;11.812;2023-06-24T06:30:32;21.55;;;13.80;;
71671;SDS011;67659;45.554;11.812;2023-06-24T06:32:58;20.33;;;13.13;;
71671;SDS011;67659;45.554;11.812;2023-06-24T06:35:24;20.35;;;13.43;;
71671;SDS011;67659;45.554;11.812;2023-06-24T06:37:50;17.25;;;12.38;;
71671;SDS011;67659;45.554;11.812;2023-06-24T06:40:19;19.10;;;12.35;;
71671;SDS011;67659;45.554;11.812;2023-06-24T06:42:45;16.92;;;12.18;;
71671;SDS011;67659;45.554;11.812;2023-06-24T06:45:11;20.93;;;12.53;;
71671;SDS011;67659;45.554;11.812;2023-06-24T06:47:37;20.65;;;13.73;;
71671;SDS011;67659;45.554;11.812;2023-06-24T06:50:03;24.20;;;13.18;;
71671;SDS011;67659;45.554;11.812;2023-06-24T06:52:32;18.23;;;11.65;;
71671;SDS011;67659;45.554;11.812;2023-06-24T06:54:58;17.20;;;11.33;;
71671;SDS011;67659;45.554;11.812;2023-06-24T06:57:24;14.23;;;9.93;;
71671;SDS011;67659;45.554;11.812;2023-06-24T06:59:50;22.08;;;10.98;;
71671;SDS011;67659;45.554;11.812;2023-06-24T07:02:17;15.85;;;10.68;;
71671;SDS011;67659;45.554;11.812;2023-06-24T07:04:43;16.45;;;9.93;;
71671;SDS011;67659;45.554;11.812;2023-06-24T07:07:09;15.30;;;9.40;;
71671;SDS011;67659;45.554;11.812;2023-06-24T07:09:37;15.18;;;9.75;;
71671;SDS011;67659;45.554;11.812;2023-06-24T07:12:05;14.23;;;8.75;;
71671;SDS011;67659;45.554;11.812;2023-06-24T07:14:32;12.65;;;7.82;;
71671;SDS011;67659;45.554;11.812;2023-06-24T07:16:57;12.63;;;6.47;;
71671;SDS011;67659;45.554;11.812;2023-06-24T07:19:23;12.60;;;7.75;;
71671;SDS011;67659;45.554;11.812;2023-06-24T07:21:49;12.20;;;8.48;;
71671;SDS011;67659;45.554;11.812;2023-06-24T07:24:16;16.25;;;9.32;;
71671;SDS011;67659;45.554;11.812;2023-06-24T07:26:42;14.17;;;9.20;;
71671;SDS011;67659;45.554;11.812;2023-06-24T07:29:08;10.45;;;6.75;;
71671;SDS011;67659;45.554;11.812;2023-06-24T07:31:35;15.45;;;9.02;;
71671;SDS011;67659;45.554;11.812;2023-06-24T07:34:01;13.27;;;7.80;;
71671;SDS011;67659;45.554;11.812;2023-06-24T07:36:27;10.52;;;5.10;;
71671;SDS011;67659;45.554;11.812;2023-06-24T07:38:53;9.82;;;5.38;;
71671;SDS011;67659;45.554;11.812;2023-06-24T07:41:19;9.60;;;5.47;;
71671;SDS011;67659;45.554;11.812;2023-06-24T07:43:44;9.57;;;5.07;;
71671;SDS011;67659;45.554;11.812;2023-06-24T07:46:10;9.27;;;4.88;;
71671;SDS011;67659;45.554;11.812;2023-06-24T07:51:02;9.00;;;4.55;;
71671;SDS011;67659;45.554;11.812;2023-06-24T07:53:28;9.20;;;4.43;;
71671;SDS011;67659;45.554;11.812;2023-06-24T07:55:53;9.02;;;3.80;;
71671;SDS011;67659;45.554;11.812;2023-06-24T07:58:19;8.88;;;4.18;;
71671;SDS011;67659;45.554;11.812;2023-06-24T08:00:45;9.37;;;3.80;;
71671;SDS011;67659;45.554;11.812;2023-06-24T08:03:12;7.32;;;4.20;;
71671;SDS011;67659;45.554;11.812;2023-06-24T08:05:38;8.30;;;4.50;;
71671;SDS011;67659;45.554;11.812;2023-06-24T08:08:05;7.68;;;3.88;;
71671;SDS011;67659;45.554;11.812;2023-06-24T08:10:31;6.97;;;3.60;;
71671;SDS011;67659;45.554;11.812;2023-06-24T08:12:57;6.33;;;3.20;;
71671;SDS011;67659;45.554;11.812;2023-06-24T08:15:23;6.60;;;3.30;;
71671;SDS011;67659;45.554;11.812;2023-06-24T08:17:52;7.20;;;3.38;;
71671;SDS011;67659;45.554;11.812;2023-06-24T08:20:20;5.97;;;3.22;;
71671;SDS011;67659;45.554;11.812;2023-06-24T08:22:46;10.07;;;3.83;;
71671;SDS011;67659;45.554;11.812;2023-06-24T08:25:12;8.25;;;3.50;;
71671;SDS011;67659;45.554;11.812;2023-06-24T08:27:38;7.93;;;3.50;;
71671;SDS011;67659;45.554;11.812;2023-06-24T08:30:06;6.40;;;3.80;;
71671;SDS011;67659;45.554;11.812;2023-06-24T08:32:33;7.60;;;3.70;;
71671;SDS011;67659;45.554;11.812;2023-06-24T08:34:58;6.80;;;4.00;;
71671;SDS011;67659;45.554;11.812;2023-06-24T08:37:25;8.23;;;3.63;;
71671;SDS011;67659;45.554;11.812;2023-06-24T08:39:51;7.72;;;3.78;;
71671;SDS011;67659;45.554;11.812;2023-06-24T08:42:17;8.70;;;3.73;;
71671;SDS011;67659;45.554;11.812;2023-06-24T08:44:43;7.38;;;4.00;;
71671;SDS011;67659;45.554;11.812;2023-06-24T08:47:08;6.05;;;3.60;;
71671;SDS011;67659;45.554;11.812;2023-06-24T08:49:36;7.43;;;3.40;;
71671;SDS011;67659;45.554;11.812;2023-06-24T08:52:15;7.37;;;3.57;;
71671;SDS011;67659;45.554;11.812;2023-06-24T08:54:44;6.82;;;3.90;;
71671;SDS011;67659;45.554;11.812;2023-06-24T08:57:12;7.13;;;3.88;;
71671;SDS011;67659;45.554;11.812;2023-06-24T08:59:40;7.20;;;3.28;;
71671;SDS011;67659;45.554;11.812;2023-06-24T09:02:07;6.22;;;3.30;;
71671;SDS011;67659;45.554;11.812;2023-06-24T09:04:33;6.30;;;3.13;;
71671;SDS011;67659;45.554;11.812;2023-06-24T09:07:00;6.55;;;3.20;;
71671;SDS011;67659;45.554;11.812;2023-06-24T09:09:26;5.30;;;2.78;;
71671;SDS011;67659;45.554;11.812;2023-06-24T09:11:54;6.70;;;2.80;;
71671;SDS011;67659;45.554;11.812;2023-06-24T09:14:22;8.13;;;2.63;;
71671;SDS011;67659;45.554;11.812;2023-06-24T09:16:53;6.28;;;3.08;;
71671;SDS011;67659;45.554;11.812;2023-06-24T09:19:24;4.90;;;2.63;;
71671;SDS011;67659;45.554;11.812;2023-06-24T09:22:05;5.97;;;2.63;;
71671;SDS011;67659;45.554;11.812;2023-06-24T09:24:33;6.07;;;2.88;;
71671;SDS011;67659;45.554;11.812;2023-06-24T09:26:59;5.50;;;3.00;;
71671;SDS011;67659;45.554;11.812;2023-06-24T09:29:26;5.05;;;2.70;;
71671;SDS011;67659;45.554;11.812;2023-06-24T09:31:53;6.05;;;2.97;;
71671;SDS011;67659;45.554;11.812;2023-06-24T09:34:21;6.90;;;3.10;;
71671;SDS011;67659;45.554;11.812;2023-06-24T09:36:51;5.85;;;2.95;;
71671;SDS011;67659;45.554;11.812;2023-06-24T09:39:18;5.53;;;3.10;;
71671;SDS011;67659;45.554;11.812;2023-06-24T09:41:49;6.40;;;3.20;;
71671;SDS011;67659;45.554;11.812;2023-06-24T09:44:16;5.60;;;2.70;;
71671;SDS011;67659;45.554;11.812;2023-06-24T09:46:44;6.72;;;2.90;;
71671;SDS011;67659;45.554;11.812;2023-06-24T09:49:10;6.35;;;2.80;;
71671;SDS011;67659;45.554;11.812;2023-06-24T09:51:39;7.67;;;2.77;;
71671;SDS011;67659;45.554;11.812;2023-06-24T09:54:09;6.75;;;2.72;;
71671;SDS011;67659;45.554;11.812;2023-06-24T09:56:36;5.90;;;2.60;;
71671;SDS011;67659;45.554;11.812;2023-06-24T09:59:04;7.43;;;2.90;;
71671;SDS011;67659;45.554;11.812;2023-06-24T10:01:32;5.43;;;2.85;;
71671;SDS011;67659;45.554;11.812;2023-06-24T10:04:03;6.23;;;2.90;;
71671;SDS011;67659;45.554;11.812;2023-06-24T10:06:31;5.82;;;2.90;;
71671;SDS011;67659;45.554;11.812;2023-06-24T10:08:59;7.40;;;3.05;;
71671;SDS011;67659;45.554;11.812;2023-06-24T10:11:27;5.60;;;2.88;;
71671;SDS011;67659;45.554;11.812;2023-06-24T10:13:53;7.47;;;3.17;;
71671;SDS011;67659;45.554;11.812;2023-06-24T10:16:20;6.65;;;3.05;;
71671;SDS011;67659;45.554;11.812;2023-06-24T10:18:46;7.18;;;3.13;;
71671;SDS011;67659;45.554;11.812;2023-06-24T10:21:12;7.10;;;3.90;;
71671;SDS011;67659;45.554;11.812;2023-06-24T10:26:25;7.77;;;3.47;;
71671;SDS011;67659;45.554;11.812;2023-06-24T10:36:58;6.00;;;3.10;;
71671;SDS011;67659;45.554;11.812;2023-06-24T10:45:14;5.88;;;3.00;;
71671;SDS011;67659;45.554;11.812;2023-06-24T10:50:13;6.32;;;2.90;;
71671;SDS011;67659;45.554;11.812;2023-06-24T10:52:44;6.03;;;3.00;;
71671;SDS011;67659;45.554;11.812;2023-06-24T10:55:14;8.98;;;3.30;;
71671;SDS011;67659;45.554;11.812;2023-06-24T10:57:44;18.48;;;16.52;;
71671;SDS011;67659;45.554;11.812;2023-06-24T11:00:11;8.45;;;5.55;;
71671;SDS011;67659;45.554;11.812;2023-06-24T11:02:40;5.78;;;3.38;;
71671;SDS011;67659;45.554;11.812;2023-06-24T11:05:06;7.43;;;3.33;;
71671;SDS011;67659;45.554;11.812;2023-06-24T11:07:33;5.68;;;3.13;;
71671;SDS011;67659;45.554;11.812;2023-06-24T11:10:11;6.03;;;2.90;;
71671;SDS011;67659;45.554;11.812;2023-06-24T11:12:38;5.20;;;3.00;;
71671;SDS011;67659;45.554;11.812;2023-06-24T11:17:34;5.43;;;2.93;;
71671;SDS011;67659;45.554;11.812;2023-06-24T11:20:01;5.82;;;2.83;;
71671;SDS011;67659;45.554;11.812;2023-06-24T11:22:31;6.45;;;2.75;;
71671;SDS011;67659;45.554;11.812;2023-06-24T11:24:57;5.10;;;2.78;;
71671;SDS011;67659;45.554;11.812;2023-06-24T11:27:24;5.43;;;3.07;;
71671;SDS011;67659;45.554;11.812;2023-06-24T11:29:51;5.20;;;2.90;;
71671;SDS011;67659;45.554;11.812;2023-06-24T11:32:18;6.13;;;2.78;;
71671;SDS011;67659;45.554;11.812;2023-06-24T11:34:44;5.65;;;2.80;;
71671;SDS011;67659;45.554;11.812;2023-06-24T11:37:12;6.20;;;2.70;;
71671;SDS011;67659;45.554;11.812;2023-06-24T11:39:39;5.47;;;2.85;;
71671;SDS011;67659;45.554;11.812;2023-06-24T11:42:08;6.50;;;2.80;;
71671;SDS011;67659;45.554;11.812;2023-06-24T11:44:35;6.30;;;2.88;;
71671;SDS011;67659;45.554;11.812;2023-06-24T11:47:06;5.10;;;2.60;;
71671;SDS011;67659;45.554;11.812;2023-06-24T11:49:52;5.40;;;2.50;;
71671;SDS011;67659;45.554;11.812;2023-06-24T11:52:31;4.68;;;2.58;;
71671;SDS011;67659;45.554;11.812;2023-06-24T11:55:03;5.00;;;2.70;;
71671;SDS011;67659;45.554;11.812;2023-06-24T12:00:19;5.10;;;2.75;;
71671;SDS011;67659;45.554;11.812;2023-06-24T12:02:52;5.67;;;2.70;;
71671;SDS011;67659;45.554;11.812;2023-06-24T12:05:22;5.15;;;2.67;;
71671;SDS011;67659;45.554;11.812;2023-06-24T12:08:00;4.68;;;2.40;;
71671;SDS011;67659;45.554;11.812;2023-06-24T12:10:27;5.93;;;2.78;;
71671;SDS011;67659;45.554;11.812;2023-06-24T12:12:56;4.70;;;2.28;;
71671;SDS011;67659;45.554;11.812;2023-06-24T12:15:23;4.67;;;2.30;;
71671;SDS011;67659;45.554;11.812;2023-06-24T12:17:48;4.88;;;2.10;;
71671;SDS011;67659;45.554;11.812;2023-06-24T12:20:15;4.35;;;1.98;;
71671;SDS011;67659;45.554;11.812;2023-06-24T12:22:41;4.47;;;1.88;;
71671;SDS011;67659;45.554;11.812;2023-06-24T12:25:08;5.33;;;2.23;;
71671;SDS011;67659;45.554;11.812;2023-06-24T12:27:34;4.47;;;2.13;;
71671;SDS011;67659;45.554;11.812;2023-06-24T12:30:00;4.07;;;2.10;;
71671;SDS011;67659;45.554;11.812;2023-06-24T12:32:26;4.07;;;1.90;;
71671;SDS011;67659;45.554;11.812;2023-06-24T12:34:52;3.90;;;1.87;;
71671;SDS011;67659;45.554;11.812;2023-06-24T12:37:18;3.60;;;1.90;;
71671;SDS011;67659;45.554;11.812;2023-06-24T12:39:44;5.00;;;2.10;;
71671;SDS011;67659;45.554;11.812;2023-06-24T12:42:10;4.07;;;2.00;;
71671;SDS011;67659;45.554;11.812;2023-06-24T12:44:36;4.63;;;2.10;;
71671;SDS011;67659;45.554;11.812;2023-06-24T12:47:02;5.97;;;2.05;;
71671;SDS011;67659;45.554;11.812;2023-06-24T12:49:28;5.07;;;2.33;;
71671;SDS011;67659;45.554;11.812;2023-06-24T12:51:54;4.57;;;2.40;;
71671;SDS011;67659;45.554;11.812;2023-06-24T12:54:20;7.37;;;2.13;;
71671;SDS011;67659;45.554;11.812;2023-06-24T12:56:46;6.68;;;2.40;;
71671;SDS011;67659;45.554;11.812;2023-06-24T12:59:12;4.00;;;1.90;;
71671;SDS011;67659;45.554;11.812;2023-06-24T13:01:37;4.20;;;2.20;;
71671;SDS011;67659;45.554;11.812;2023-06-24T13:04:03;5.28;;;2.10;;
71671;SDS011;67659;45.554;11.812;2023-06-24T13:06:29;4.90;;;2.20;;
71671;SDS011;67659;45.554;11.812;2023-06-24T13:08:55;6.43;;;2.20;;
71671;SDS011;67659;45.554;11.812;2023-06-24T13:11:21;4.20;;;2.05;;
71671;SDS011;67659;45.554;11.812;2023-06-24T13:13:47;4.55;;;2.15;;
71671;SDS011;67659;45.554;11.812;2023-06-24T13:16:13;6.00;;;2.40;;
71671;SDS011;67659;45.554;11.812;2023-06-24T13:18:38;6.15;;;2.17;;
71671;SDS011;67659;45.554;11.812;2023-06-24T13:21:04;5.00;;;2.37;;
71671;SDS011;67659;45.554;11.812;2023-06-24T13:23:31;5.07;;;2.20;;
71671;SDS011;67659;45.554;11.812;2023-06-24T13:25:58;5.25;;;2.30;;
71671;SDS011;67659;45.554;11.812;2023-06-24T13:28:24;4.40;;;2.10;;
71671;SDS011;67659;45.554;11.812;2023-06-24T13:30:50;5.63;;;2.20;;
71671;SDS011;67659;45.554;11.812;2023-06-24T13:33:19;4.47;;;2.25;;
71671;SDS011;67659;45.554;11.812;2023-06-24T13:35:45;5.45;;;2.42;;
71671;SDS011;67659;45.554;11.812;2023-06-24T13:38:11;5.23;;;2.30;;
71671;SDS011;67659;45.554;11.812;2023-06-24T13:40:37;6.28;;;2.30;;
71671;SDS011;67659;45.554;11.812;2023-06-24T13:43:03;6.57;;;2.35;;
71671;SDS011;67659;45.554;11.812;2023-06-24T13:45:29;5.03;;;2.25;;
71671;SDS011;67659;45.554;11.812;2023-06-24T13:47:54;5.00;;;2.10;;
71671;SDS011;67659;45.554;11.812;2023-06-24T13:50:20;5.85;;;2.35;;
71671;SDS011;67659;45.554;11.812;2023-06-24T13:52:46;6.15;;;2.38;;
71671;SDS011;67659;45.554;11.812;2023-06-24T13:55:12;5.57;;;2.40;;
71671;SDS011;67659;45.554;11.812;2023-06-24T13:57:38;5.03;;;2.08;;
71671;SDS011;67659;45.554;11.812;2023-06-24T14:00:03;7.53;;;2.70;;
71671;SDS011;67659;45.554;11.812;2023-06-24T14:02:30;5.68;;;2.40;;
71671;SDS011;67659;45.554;11.812;2023-06-24T14:04:56;5.18;;;2.25;;
71671;SDS011;67659;45.554;11.812;2023-06-24T14:07:21;5.00;;;2.00;;
71671;SDS011;67659;45.554;11.812;2023-06-24T14:09:47;4.57;;;2.40;;
71671;SDS011;67659;45.554;11.812;2023-06-24T14:12:13;5.95;;;2.10;;
71671;SDS011;67659;45.554;11.812;2023-06-24T14:14:39;4.67;;;1.90;;
71671;SDS011;67659;45.554;11.812;2023-06-24T14:17:05;4.35;;;1.83;;
71671;SDS011;67659;45.554;11.812;2023-06-24T14:19:36;6.28;;;1.90;;
71671;SDS011;67659;45.554;11.812;2023-06-24T14:22:03;6.30;;;1.92;;
71671;SDS011;67659;45.554;11.812;2023-06-24T14:24:30;5.22;;;2.05;;
71671;SDS011;67659;45.554;11.812;2023-06-24T14:26:57;4.17;;;1.60;;
71671;SDS011;67659;45.554;11.812;2023-06-24T14:29:23;4.47;;;1.80;;
71671;SDS011;67659;45.554;11.812;2023-06-24T14:31:51;4.60;;;1.95;;
71671;SDS011;67659;45.554;11.812;2023-06-24T14:34:17;3.38;;;1.65;;
71671;SDS011;67659;45.554;11.812;2023-06-24T14:36:43;6.18;;;1.80;;
71671;SDS011;67659;45.554;11.812;2023-06-24T14:39:12;5.43;;;1.80;;
71671;SDS011;67659;45.554;11.812;2023-06-24T14:41:39;4.53;;;1.60;;
71671;SDS011;67659;45.554;11.812;2023-06-24T14:44:05;4.07;;;1.80;;
71671;SDS011;67659;45.554;11.812;2023-06-24T14:46:30;3.90;;;1.60;;
71671;SDS011;67659;45.554;11.812;2023-06-24T14:48:56;4.65;;;1.83;;
71671;SDS011;67659;45.554;11.812;2023-06-24T14:51:23;3.67;;;1.60;;
71671;SDS011;67659;45.554;11.812;2023-06-24T14:53:49;6.20;;;1.57;;
71671;SDS011;67659;45.554;11.812;2023-06-24T14:56:15;3.55;;;1.60;;
71671;SDS011;67659;45.554;11.812;2023-06-24T14:58:41;4.65;;;1.70;;
71671;SDS011;67659;45.554;11.812;2023-06-24T15:01:07;5.30;;;1.60;;
71671;SDS011;67659;45.554;11.812;2023-06-24T15:03:33;4.95;;;1.80;;